createdAt,value
2022-10-13T00:00:21.291Z,78.21
2022-10-13T00:01:24.225Z,78.19
2022-10-13T00:02:26.124Z,78.07
2022-10-13T00:03:27.768Z,78.06
2022-10-13T00:04:30.514Z,77.91
2022-10-13T00:05:33.316Z,78.00
2022-10-13T00:06:35.255Z,77.59
2022-10-13T00:07:37.016Z,77.20
2022-10-13T00:08:39.543Z,76.27
2022-10-13T00:09:43.135Z,76.27
2022-10-13T00:10:47.637Z,76.72
2022-10-13T00:11:50.561Z,76.62
2022-10-13T00:12:52.825Z,76.55
2022-10-13T00:15:10.027Z,76.15
2022-10-13T00:16:15.245Z,75.63
2022-10-13T00:17:16.999Z,75.70
2022-10-13T00:18:18.950Z,75.25
2022-10-13T00:19:20.843Z,74.71
2022-10-13T00:20:22.883Z,74.85
2022-10-13T00:21:26.217Z,75.07
2022-10-13T00:22:28.543Z,74.97
2022-10-13T00:23:33.302Z,75.04
2022-10-13T00:24:35.241Z,75.00
2022-10-13T00:26:56.059Z,74.35
2022-10-13T00:27:57.895Z,74.00
2022-10-13T00:29:01.709Z,73.67
2022-10-13T00:30:04.826Z,73.44
2022-10-13T00:31:27.997Z,72.99
2022-10-13T00:32:30.035Z,73.03
2022-10-13T00:33:31.922Z,72.48
2022-10-13T00:34:34.888Z,72.60
2022-10-13T00:35:45.472Z,72.86
2022-10-13T00:36:49.656Z,73.03
2022-10-13T00:37:52.719Z,73.14
2022-10-13T00:38:55.761Z,73.22
2022-10-13T00:39:57.620Z,73.05
2022-10-13T00:40:59.625Z,73.22
2022-10-13T00:42:02.581Z,74.51
2022-10-13T00:43:08.190Z,74.83
2022-10-13T00:44:47.186Z,74.77
2022-10-13T00:45:50.435Z,74.79
2022-10-13T00:46:52.484Z,74.48
2022-10-13T00:48:00.741Z,74.14
2022-10-13T00:49:06.424Z,74.27
2022-10-13T00:50:12.931Z,74.42
2022-10-13T00:51:18.626Z,74.33
2022-10-13T00:52:23.179Z,74.08
2022-10-13T00:53:28.700Z,74.01
2022-10-13T00:54:30.677Z,73.75
2022-10-13T00:55:35.437Z,73.51
2022-10-13T00:56:38.784Z,74.10
2022-10-13T00:57:43.563Z,74.64
2022-10-13T00:58:48.365Z,74.77
2022-10-13T00:59:51.193Z,74.77
2022-10-13T01:00:53.455Z,74.65
2022-10-13T01:01:58.426Z,74.56
2022-10-13T01:03:02.106Z,73.96
2022-10-13T01:04:05.224Z,74.22
2022-10-13T01:05:08.434Z,74.78
2022-10-13T01:06:12.203Z,75.75
2022-10-13T01:07:16.392Z,76.14
2022-10-13T01:08:21.426Z,76.87
2022-10-13T01:09:23.197Z,76.98
2022-10-13T01:10:46.807Z,76.77
2022-10-13T01:12:13.637Z,76.32
2022-10-13T01:13:28.203Z,75.58
2022-10-13T01:14:34.999Z,75.66
2022-10-13T01:15:43.206Z,76.66
2022-10-13T01:17:08.924Z,76.74
2022-10-13T01:18:23.612Z,76.84
2022-10-13T01:19:41.580Z,76.76
2022-10-13T01:21:06.937Z,76.74
2022-10-13T01:22:21.624Z,76.30
2022-10-13T01:23:42.422Z,77.00
2022-10-13T01:24:48.052Z,77.05
2022-10-13T01:26:17.994Z,76.61
2022-10-13T01:27:28.278Z,76.76
2022-10-13T01:28:54.523Z,76.93
2022-10-13T01:30:05.621Z,77.19
2022-10-13T01:31:30.501Z,78.13
2022-10-13T01:32:55.700Z,78.55
2022-10-13T01:34:07.700Z,78.40
2022-10-13T01:35:14.338Z,78.71
2022-10-13T01:36:32.065Z,78.99
2022-10-13T01:37:46.541Z,79.31
2022-10-13T01:38:58.403Z,79.29
2022-10-13T01:40:38.996Z,79.53
2022-10-13T01:41:47.545Z,79.29
2022-10-13T01:43:04.639Z,78.90
2022-10-13T01:44:34.649Z,79.00
2022-10-13T01:45:40.230Z,78.38
2022-10-13T01:46:46.546Z,78.22
2022-10-13T01:47:50.871Z,78.20
2022-10-13T01:48:55.884Z,78.42
2022-10-13T01:49:59.315Z,78.74
2022-10-13T01:51:01.797Z,79.12
2022-10-13T01:52:10.275Z,79.66
2022-10-13T01:53:14.759Z,79.84
2022-10-13T01:54:17.097Z,79.81
2022-10-13T01:55:18.917Z,79.77
2022-10-13T01:56:20.620Z,79.46
2022-10-13T01:57:31.895Z,79.67
2022-10-13T01:58:36.221Z,79.63
2022-10-13T01:59:38.171Z,79.08
2022-10-13T02:00:44.327Z,79.24
2022-10-13T02:02:09.102Z,80.18
2022-10-13T02:03:14.774Z,80.27
2022-10-13T02:04:26.455Z,80.24
2022-10-13T02:05:31.942Z,80.21
2022-10-13T02:06:54.395Z,80.14
2022-10-13T02:08:03.001Z,80.31
2022-10-13T02:09:10.978Z,80.30
2022-10-13T02:11:34.495Z,80.41
2022-10-13T02:12:54.592Z,80.57
2022-10-13T02:14:03.458Z,80.57
2022-10-13T02:15:09.242Z,79.96
2022-10-13T02:16:14.475Z,80.16
2022-10-13T02:17:17.459Z,80.21
2022-10-13T02:18:24.007Z,79.87
2022-10-13T02:19:28.193Z,80.08
2022-10-13T02:20:31.498Z,80.01
2022-10-13T02:21:33.750Z,80.07
2022-10-13T02:22:43.243Z,79.78
2022-10-13T02:23:45.725Z,79.82
2022-10-13T02:24:47.941Z,79.69
2022-10-13T02:25:50.056Z,79.15
2022-10-13T02:26:53.139Z,78.65
2022-10-13T02:27:58.935Z,77.97
2022-10-13T02:29:11.571Z,77.80
2022-10-13T02:30:23.169Z,77.58
2022-10-13T02:31:25.292Z,77.07
2022-10-13T02:32:27.337Z,76.46
2022-10-13T02:33:29.146Z,76.31
2022-10-13T02:34:32.052Z,76.25
2022-10-13T02:35:34.213Z,75.66
2022-10-13T02:36:36.799Z,76.09
2022-10-13T02:37:38.595Z,76.56
2022-10-13T02:38:40.456Z,77.28
2022-10-13T02:39:42.832Z,77.71
2022-10-13T02:40:47.148Z,77.74
2022-10-13T02:41:48.842Z,77.69
2022-10-13T02:42:51.145Z,77.52
2022-10-13T02:43:52.904Z,77.64
2022-10-13T02:44:56.167Z,77.76
2022-10-13T02:45:58.325Z,77.78
2022-10-13T02:47:00.150Z,77.93
2022-10-13T02:48:01.991Z,77.55
2022-10-13T02:49:03.738Z,77.80
2022-10-13T02:50:06.561Z,78.17
2022-10-13T02:51:08.496Z,78.34
2022-10-13T02:52:10.252Z,78.40
2022-10-13T02:53:14.188Z,78.04
2022-10-13T02:54:16.050Z,78.38
2022-10-13T02:55:18.533Z,78.90
2022-10-13T02:56:20.970Z,79.43
2022-10-13T02:57:22.815Z,79.47
2022-10-13T02:58:24.997Z,79.39
2022-10-13T02:59:26.720Z,79.39
2022-10-13T03:00:28.716Z,79.31
2022-10-13T03:01:31.201Z,79.16
2022-10-13T03:02:33.178Z,79.40
2022-10-13T03:03:35.815Z,80.43
2022-10-13T03:04:37.648Z,81.42
2022-10-13T03:05:40.646Z,81.35
2022-10-13T03:06:42.604Z,81.39
2022-10-13T03:07:45.480Z,81.21
2022-10-13T03:08:47.244Z,80.71
2022-10-13T03:09:49.590Z,81.24
2022-10-13T03:10:51.921Z,81.24
2022-10-13T03:11:53.713Z,81.46
2022-10-13T03:12:55.580Z,82.04
2022-10-13T03:13:57.348Z,82.17
2022-10-13T03:14:59.238Z,81.83
2022-10-13T03:16:01.032Z,81.72
2022-10-13T03:17:03.423Z,81.68
2022-10-13T03:18:05.903Z,81.75
2022-10-13T03:19:07.838Z,81.37
2022-10-13T03:20:10.594Z,81.41
2022-10-13T03:21:12.345Z,80.96
2022-10-13T03:22:14.243Z,81.01
2022-10-13T03:23:16.475Z,80.83
2022-10-13T03:24:18.458Z,80.83
2022-10-13T03:25:20.583Z,80.64
2022-10-13T03:26:22.474Z,80.42
2022-10-13T03:27:24.902Z,79.91
2022-10-13T03:28:26.911Z,80.16
2022-10-13T03:29:29.050Z,80.09
2022-10-13T03:30:30.961Z,80.13
2022-10-13T03:31:33.258Z,79.82
2022-10-13T03:32:38.274Z,79.86
2022-10-13T03:33:40.464Z,79.80
2022-10-13T03:34:42.384Z,79.50
2022-10-13T03:35:44.170Z,78.70
2022-10-13T03:36:46.187Z,79.18
2022-10-13T03:37:48.467Z,79.97
2022-10-13T03:38:50.122Z,79.97
2022-10-13T03:39:52.357Z,80.82
2022-10-13T03:40:54.369Z,81.03
2022-10-13T03:41:56.309Z,80.94
2022-10-13T03:42:58.073Z,80.62
2022-10-13T03:43:59.946Z,80.62
2022-10-13T03:45:05.288Z,80.40
2022-10-13T03:46:12.942Z,80.41
2022-10-13T03:47:16.143Z,80.25
2022-10-13T03:48:18.011Z,79.64
2022-10-13T03:49:20.022Z,79.64
2022-10-13T03:50:22.000Z,79.82
2022-10-13T03:51:24.241Z,79.90
2022-10-13T03:52:26.092Z,80.26
2022-10-13T03:53:28.782Z,80.27
2022-10-13T03:54:30.837Z,80.16
2022-10-13T03:55:32.823Z,80.62
2022-10-13T03:56:34.544Z,80.48
2022-10-13T03:57:36.377Z,80.86
2022-10-13T03:58:37.985Z,81.36
2022-10-13T03:59:41.540Z,81.73
2022-10-13T04:00:43.834Z,82.72
2022-10-13T04:01:45.688Z,83.08
2022-10-13T04:02:48.687Z,83.29
2022-10-13T04:03:52.997Z,83.47
2022-10-13T04:04:54.754Z,83.65
2022-10-13T04:06:01.819Z,84.36
2022-10-13T04:07:04.305Z,84.58
2022-10-13T04:08:06.808Z,84.57
2022-10-13T04:09:08.812Z,84.69
2022-10-13T04:10:11.617Z,84.44
2022-10-13T04:11:15.527Z,84.38
2022-10-13T04:12:20.894Z,83.93
2022-10-13T04:13:22.023Z,83.49
2022-10-13T04:14:26.316Z,83.62
2022-10-13T04:15:30.491Z,83.51
2022-10-13T04:16:32.435Z,83.16
2022-10-13T04:17:35.398Z,83.12
2022-10-13T04:18:41.071Z,82.93
2022-10-13T04:19:41.726Z,82.29
2022-10-13T04:20:43.644Z,82.45
2022-10-13T04:21:45.460Z,82.40
2022-10-13T04:22:47.437Z,82.54
2022-10-13T04:23:49.763Z,82.73
2022-10-13T04:24:51.689Z,82.55
2022-10-13T04:25:53.292Z,81.82
2022-10-13T04:26:55.312Z,81.79
2022-10-13T04:27:57.033Z,81.76
2022-10-13T04:28:59.296Z,80.96
2022-10-13T04:30:01.381Z,80.69
2022-10-13T04:31:03.431Z,79.91
2022-10-13T04:32:05.726Z,79.37
2022-10-13T04:33:08.906Z,79.01
2022-10-13T04:34:11.457Z,79.09
2022-10-13T04:35:13.405Z,79.25
2022-10-13T04:36:16.874Z,79.52
2022-10-13T04:37:20.253Z,79.77
2022-10-13T04:38:22.054Z,80.05
2022-10-13T04:39:24.069Z,80.43
2022-10-13T04:40:26.994Z,81.06
2022-10-13T04:41:29.160Z,81.25
2022-10-13T04:42:30.859Z,81.47
2022-10-13T04:43:34.529Z,81.89
2022-10-13T04:44:36.436Z,82.07
2022-10-13T04:45:40.053Z,81.99
2022-10-13T04:46:42.987Z,81.70
2022-10-13T04:47:44.987Z,81.67
2022-10-13T04:48:47.337Z,81.53
2022-10-13T04:49:49.868Z,81.36
2022-10-13T04:52:21.607Z,80.58
2022-10-13T04:53:23.921Z,79.99
2022-10-13T04:54:25.807Z,79.58
2022-10-13T04:55:27.742Z,79.05
2022-10-13T04:56:30.840Z,78.93
2022-10-13T04:57:34.492Z,78.67
2022-10-13T04:58:37.820Z,78.35
2022-10-13T04:59:40.221Z,78.35
2022-10-13T05:00:45.830Z,78.59
2022-10-13T05:01:47.742Z,78.71
2022-10-13T05:02:49.849Z,78.85
2022-10-13T05:03:57.361Z,78.97
2022-10-13T05:04:59.955Z,78.77
2022-10-13T05:06:02.120Z,78.96
2022-10-13T05:07:17.449Z,79.29
2022-10-13T05:08:08.983Z,79.40
2022-10-13T05:09:14.718Z,79.21
2022-10-13T05:10:17.222Z,79.00
2022-10-13T05:11:19.284Z,78.80
2022-10-13T05:12:23.460Z,78.31
2022-10-13T05:13:28.850Z,77.84
2022-10-13T05:14:32.819Z,77.44
2022-10-13T05:15:38.543Z,77.10
2022-10-13T05:16:40.593Z,76.71
2022-10-13T05:17:42.733Z,76.29
2022-10-13T05:18:44.875Z,76.05
2022-10-13T05:19:48.757Z,75.83
2022-10-13T05:20:50.847Z,75.56
2022-10-13T05:21:52.819Z,75.34
2022-10-13T05:22:54.648Z,75.19
2022-10-13T05:23:57.008Z,74.64
2022-10-13T05:24:58.895Z,74.64
2022-10-13T05:26:03.140Z,74.38
2022-10-13T05:27:08.310Z,74.11
2022-10-13T05:28:10.442Z,73.98
2022-10-13T05:29:13.170Z,73.88
2022-10-13T05:30:15.345Z,73.59
2022-10-13T05:31:22.449Z,73.62
2022-10-13T05:32:25.039Z,73.68
2022-10-13T05:33:27.952Z,73.78
2022-10-13T05:34:30.004Z,74.13
2022-10-13T05:35:31.932Z,74.42
2022-10-13T05:36:34.556Z,74.50
2022-10-13T05:37:37.688Z,74.32
2022-10-13T05:38:39.610Z,74.31
2022-10-13T05:39:41.259Z,74.37
2022-10-13T05:40:42.994Z,74.81
2022-10-13T05:41:45.883Z,74.98
2022-10-13T05:42:53.202Z,75.23
2022-10-13T05:44:00.750Z,75.21
2022-10-13T05:45:04.403Z,75.13
2022-10-13T05:46:07.265Z,75.04
2022-10-13T05:47:11.034Z,74.78
2022-10-13T05:48:12.889Z,74.47
2022-10-13T05:49:15.276Z,74.55
2022-10-13T05:50:17.173Z,74.70
2022-10-13T05:51:25.701Z,74.59
2022-10-13T05:52:30.680Z,74.34
2022-10-13T05:53:36.050Z,74.09
2022-10-13T05:54:44.326Z,73.87
2022-10-13T05:55:46.305Z,73.71
2022-10-13T05:56:56.713Z,73.55
2022-10-13T05:58:01.708Z,73.34
2022-10-13T05:59:07.366Z,72.97
2022-10-13T06:00:16.208Z,72.91
2022-10-13T06:01:21.838Z,72.80
2022-10-13T06:02:27.350Z,72.74
2022-10-13T06:03:29.389Z,72.55
2022-10-13T06:04:41.420Z,72.03
2022-10-13T06:05:45.472Z,71.48
2022-10-13T06:06:48.984Z,72.07
2022-10-13T06:07:51.615Z,72.34
2022-10-13T06:08:53.633Z,72.25
2022-10-13T06:09:57.130Z,72.02
2022-10-13T06:10:59.869Z,72.15
2022-10-13T06:12:01.974Z,72.13
2022-10-13T06:13:04.251Z,72.04
2022-10-13T06:14:06.051Z,71.82
2022-10-13T06:15:09.509Z,71.86
2022-10-13T06:16:11.924Z,71.68
2022-10-13T06:17:13.735Z,73.58
2022-10-13T06:18:17.521Z,73.58
2022-10-13T06:19:19.642Z,74.15
2022-10-13T06:20:21.753Z,75.05
2022-10-13T06:21:24.168Z,76.44
2022-10-13T06:22:26.505Z,76.91
2022-10-13T06:23:29.420Z,77.62
2022-10-13T06:24:33.576Z,77.76
2022-10-13T06:25:35.633Z,78.29
2022-10-13T06:26:37.517Z,78.61
2022-10-13T06:27:39.310Z,78.26
2022-10-13T06:28:40.998Z,78.71
2022-10-13T06:29:42.866Z,78.92
2022-10-13T06:30:45.568Z,78.91
2022-10-13T06:31:47.519Z,78.36
2022-10-13T06:32:50.556Z,78.36
2022-10-13T06:33:52.694Z,78.36
2022-10-13T06:34:54.701Z,78.26
2022-10-13T06:35:56.337Z,78.24
2022-10-13T06:36:58.322Z,78.18
2022-10-13T06:38:00.263Z,78.05
2022-10-13T06:39:02.523Z,77.27
2022-10-13T06:40:05.476Z,76.58
2022-10-13T06:41:08.400Z,75.90
2022-10-13T06:42:11.234Z,75.13
2022-10-13T06:43:12.890Z,74.50
2022-10-13T06:44:17.236Z,73.89
2022-10-13T06:45:20.126Z,73.19
2022-10-13T06:46:22.581Z,72.73
2022-10-13T06:47:25.578Z,72.42
2022-10-13T06:48:29.260Z,71.83
2022-10-13T06:49:31.434Z,71.38
2022-10-13T06:50:35.158Z,71.38
2022-10-13T06:51:38.758Z,71.18
2022-10-13T06:52:40.464Z,70.86
2022-10-13T06:53:42.876Z,70.63
2022-10-13T06:54:45.667Z,70.35
2022-10-13T06:55:52.234Z,70.10
2022-10-13T06:56:52.382Z,69.98
2022-10-13T06:57:55.148Z,69.86
2022-10-13T06:58:57.549Z,69.63
2022-10-13T07:00:00.369Z,69.42
2022-10-13T07:01:02.893Z,69.27
2022-10-13T07:02:05.820Z,69.21
2022-10-13T07:03:08.014Z,69.42
2022-10-13T07:04:09.740Z,69.21
2022-10-13T07:05:11.376Z,69.32
2022-10-13T07:06:14.043Z,69.39
2022-10-13T07:07:16.336Z,69.65
2022-10-13T07:08:19.230Z,69.98
2022-10-13T07:09:21.001Z,70.02
2022-10-13T07:10:23.059Z,70.06
2022-10-13T07:11:25.482Z,70.04
2022-10-13T07:12:29.243Z,70.12
2022-10-13T07:13:34.908Z,70.25
2022-10-13T07:14:37.296Z,70.25
2022-10-13T07:15:41.435Z,70.38
2022-10-13T07:16:44.087Z,70.50
2022-10-13T07:17:47.078Z,69.87
2022-10-13T07:18:49.287Z,69.87
2022-10-13T07:19:55.780Z,69.82
2022-10-13T07:20:58.166Z,69.63
2022-10-13T07:22:00.106Z,69.36
2022-10-13T07:23:04.046Z,69.13
2022-10-13T07:24:06.326Z,69.00
2022-10-13T07:25:09.639Z,68.94
2022-10-13T07:26:14.995Z,68.80
2022-10-13T07:27:18.155Z,68.94
2022-10-13T07:28:20.040Z,68.93
2022-10-13T07:29:22.678Z,69.12
2022-10-13T07:30:25.001Z,69.25
2022-10-13T07:31:28.526Z,69.27
2022-10-13T07:32:32.526Z,69.20
2022-10-13T07:33:34.740Z,69.12
2022-10-13T07:34:37.014Z,69.10
2022-10-13T07:35:39.237Z,69.25
2022-10-13T07:36:42.019Z,69.20
2022-10-13T07:37:43.906Z,69.22
2022-10-13T07:38:46.176Z,68.97
2022-10-13T07:39:47.876Z,68.89
2022-10-13T07:40:50.476Z,68.79
2022-10-13T07:41:52.568Z,68.71
2022-10-13T07:42:56.310Z,68.62
2022-10-13T07:43:58.612Z,68.58
2022-10-13T07:45:00.416Z,69.41
2022-10-13T07:46:04.282Z,69.69
2022-10-13T07:47:06.188Z,69.68
2022-10-13T07:48:07.974Z,68.82
2022-10-13T07:49:12.360Z,68.24
2022-10-13T07:50:14.732Z,67.72
2022-10-13T07:51:16.728Z,68.03
2022-10-13T07:52:18.909Z,68.01
2022-10-13T07:53:21.610Z,67.74
2022-10-13T07:54:26.520Z,67.80
2022-10-13T07:55:27.331Z,67.80
2022-10-13T07:56:29.427Z,67.68
2022-10-13T07:57:31.569Z,67.91
2022-10-13T07:58:39.664Z,67.91
2022-10-13T07:59:41.657Z,68.07
2022-10-13T08:00:47.932Z,68.33
2022-10-13T08:01:50.538Z,67.87
2022-10-13T08:02:52.514Z,67.83
2022-10-13T08:03:55.358Z,68.44
2022-10-13T08:04:57.238Z,67.88
2022-10-13T08:06:00.704Z,67.62
2022-10-13T08:07:04.522Z,67.38
2022-10-13T08:08:06.447Z,67.60
2022-10-13T08:09:09.312Z,67.50
2022-10-13T08:10:12.185Z,67.44
2022-10-13T08:11:16.707Z,67.25
2022-10-13T08:12:19.545Z,67.95
2022-10-13T08:13:21.781Z,67.60
2022-10-13T08:14:24.038Z,67.31
2022-10-13T08:15:26.506Z,67.35
2022-10-13T08:16:30.224Z,67.40
2022-10-13T08:17:32.154Z,67.04
2022-10-13T08:18:33.902Z,67.00
2022-10-13T08:19:36.212Z,66.89
2022-10-13T08:20:43.863Z,67.13
2022-10-13T08:22:02.262Z,67.29
2022-10-13T08:22:50.635Z,67.27
2022-10-13T08:23:52.452Z,68.43
2022-10-13T08:24:54.648Z,68.79
2022-10-13T08:25:58.643Z,67.74
2022-10-13T08:27:00.566Z,69.16
2022-10-13T08:28:02.529Z,72.25
2022-10-13T08:30:10.862Z,68.84
2022-10-13T08:31:14.116Z,67.78
2022-10-13T08:32:18.160Z,67.82
2022-10-13T08:33:20.516Z,67.48
2022-10-13T08:34:23.412Z,67.58
2022-10-13T08:35:25.986Z,68.10
2022-10-13T08:36:28.015Z,68.23
2022-10-13T08:37:29.923Z,68.06
2022-10-13T08:38:32.333Z,68.10
2022-10-13T08:39:35.319Z,68.11
2022-10-13T08:40:38.752Z,68.69
2022-10-13T08:41:43.434Z,69.27
2022-10-13T08:42:45.950Z,69.47
2022-10-13T08:44:27.912Z,70.75
2022-10-13T08:46:08.804Z,68.70
2022-10-13T08:47:40.893Z,68.83
2022-10-13T08:48:45.826Z,68.11
2022-10-13T08:49:49.583Z,67.33
2022-10-13T08:51:00.427Z,67.23
2022-10-13T08:52:04.822Z,68.46
2022-10-13T08:53:13.233Z,69.56
2022-10-13T08:54:18.877Z,69.56
2022-10-13T08:55:33.700Z,68.90
2022-10-13T08:56:36.824Z,67.67
2022-10-13T08:57:39.867Z,67.89
2022-10-13T08:58:44.496Z,67.48
2022-10-13T08:59:49.697Z,66.98
2022-10-13T09:01:01.611Z,66.88
2022-10-13T09:02:12.080Z,66.99
2022-10-13T09:03:22.705Z,66.69
2022-10-13T09:04:34.479Z,66.84
2022-10-13T09:05:43.077Z,66.82
2022-10-13T09:06:49.094Z,66.95
2022-10-13T09:09:00.685Z,66.31
2022-10-13T09:10:08.067Z,66.42
2022-10-13T09:11:11.903Z,66.52
2022-10-13T09:12:14.476Z,66.93
2022-10-13T09:13:19.962Z,67.10
2022-10-13T09:14:28.013Z,66.94
2022-10-13T09:15:32.065Z,65.93
2022-10-13T09:16:44.636Z,65.68
2022-10-13T09:17:50.459Z,65.94
2022-10-13T09:18:55.144Z,66.27
2022-10-13T09:20:03.878Z,66.50
2022-10-13T09:22:33.192Z,65.56
2022-10-13T09:23:39.514Z,65.47
2022-10-13T09:24:40.527Z,64.60
2022-10-13T09:25:47.573Z,64.53
2022-10-13T09:26:53.319Z,64.21
2022-10-13T09:27:59.586Z,64.43
2022-10-13T09:29:12.112Z,64.75
2022-10-13T09:30:30.672Z,64.87
2022-10-13T09:31:35.289Z,64.27
2022-10-13T09:32:37.523Z,64.93
2022-10-13T09:33:39.822Z,65.11
2022-10-13T09:34:44.507Z,64.86
2022-10-13T09:36:06.983Z,64.70
2022-10-13T09:37:24.500Z,64.89
2022-10-13T09:38:28.228Z,65.02
2022-10-13T09:39:33.795Z,65.08
2022-10-13T09:40:38.027Z,65.17
2022-10-13T09:41:43.446Z,65.43
2022-10-13T09:42:52.822Z,66.16
2022-10-13T09:43:58.874Z,66.78
2022-10-13T09:45:16.587Z,67.08
2022-10-13T09:46:26.965Z,67.41
2022-10-13T09:47:30.556Z,67.44
2022-10-13T09:48:43.977Z,67.21
2022-10-13T09:51:32.932Z,66.80
2022-10-13T09:52:37.989Z,66.21
2022-10-13T09:53:40.951Z,65.79
2022-10-13T09:54:52.465Z,66.60
2022-10-13T09:56:16.710Z,67.28
2022-10-13T09:57:47.233Z,67.36
2022-10-13T09:58:55.929Z,67.55
2022-10-13T10:00:16.573Z,71.57
2022-10-13T10:01:29.998Z,70.31
2022-10-13T10:02:40.401Z,68.99
2022-10-13T10:03:45.967Z,68.95
2022-10-13T10:04:51.107Z,67.40
2022-10-13T10:06:01.432Z,66.58
2022-10-13T10:07:14.102Z,66.87
2022-10-13T10:08:28.890Z,66.71
2022-10-13T10:09:49.137Z,76.72
2022-10-13T10:10:55.468Z,69.19
2022-10-13T10:12:00.129Z,67.51
2022-10-13T10:13:07.969Z,66.29
2022-10-13T10:14:21.552Z,68.38
2022-10-13T10:15:27.339Z,77.10
2022-10-13T10:16:42.490Z,69.19
2022-10-13T10:17:48.502Z,68.43
2022-10-13T10:18:58.890Z,66.87
2022-10-13T10:20:27.405Z,66.80
2022-10-13T10:21:36.469Z,67.77
2022-10-13T10:22:54.250Z,67.98
2022-10-13T10:24:09.136Z,66.56
2022-10-13T10:25:26.845Z,69.79
2022-10-13T10:26:39.946Z,68.97
2022-10-13T10:27:46.988Z,66.79
2022-10-13T10:29:10.583Z,66.10
2022-10-13T10:30:20.309Z,65.56
2022-10-13T10:31:59.538Z,64.33
2022-10-13T10:33:05.349Z,63.42
2022-10-13T10:34:27.531Z,63.49
2022-10-13T10:35:52.270Z,63.79
2022-10-13T10:37:25.372Z,64.14
2022-10-13T10:38:52.910Z,65.07
2022-10-13T10:40:12.345Z,65.51
2022-10-13T10:41:36.379Z,65.86
2022-10-13T10:42:52.261Z,66.36
2022-10-13T10:43:58.111Z,66.96
2022-10-13T10:45:03.724Z,67.17
2022-10-13T10:47:28.955Z,66.99
2022-10-13T10:48:37.575Z,66.51
2022-10-13T10:49:40.186Z,66.23
2022-10-13T10:50:43.385Z,66.49
2022-10-13T10:51:46.122Z,66.49
2022-10-13T10:53:05.080Z,66.58
2022-10-13T10:54:33.384Z,66.62
2022-10-13T10:55:39.509Z,66.55
2022-10-13T10:56:45.874Z,66.63
2022-10-13T10:58:12.221Z,66.82
2022-10-13T10:59:27.565Z,66.65
2022-10-13T11:00:33.225Z,66.81
2022-10-13T11:01:42.017Z,65.47
2022-10-13T11:02:50.709Z,65.19
2022-10-13T11:04:18.318Z,66.06
2022-10-13T11:05:22.462Z,66.08
2022-10-13T11:06:30.847Z,65.92
2022-10-13T11:07:39.792Z,66.12
2022-10-13T11:08:47.167Z,66.17
2022-10-13T11:09:58.580Z,66.25
2022-10-13T11:11:26.644Z,66.05
2022-10-13T11:12:27.731Z,65.87
2022-10-13T11:13:29.570Z,65.81
2022-10-13T11:14:31.432Z,65.60
2022-10-13T11:15:39.988Z,65.56
2022-10-13T11:17:00.644Z,65.41
2022-10-13T11:18:07.217Z,65.31
2022-10-13T11:19:31.202Z,65.10
2022-10-13T11:20:36.904Z,65.12
2022-10-13T11:22:01.418Z,65.30
2022-10-13T11:23:20.779Z,65.04
2022-10-13T11:24:29.843Z,64.84
2022-10-13T11:25:41.359Z,65.22
2022-10-13T11:26:43.839Z,65.80
2022-10-13T11:27:47.301Z,66.02
2022-10-13T11:28:49.121Z,65.72
2022-10-13T11:29:57.571Z,66.14
2022-10-13T11:31:25.204Z,66.28
2022-10-13T11:32:30.915Z,66.12
2022-10-13T11:33:38.751Z,66.23
2022-10-13T11:34:45.408Z,66.15
2022-10-13T11:35:47.993Z,65.75
2022-10-13T11:36:59.650Z,65.75
2022-10-13T11:38:10.647Z,65.66
2022-10-13T11:39:21.979Z,65.67
2022-10-13T11:40:31.426Z,65.53
2022-10-13T11:41:37.020Z,66.04
2022-10-13T11:45:27.837Z,66.88
2022-10-13T11:46:53.430Z,66.76
2022-10-13T11:48:15.686Z,67.13
2022-10-13T11:49:42.675Z,67.35
2022-10-13T11:51:12.581Z,67.95
2022-10-13T11:52:37.621Z,68.11
2022-10-13T11:55:08.207Z,67.95
2022-10-13T11:56:23.389Z,68.07
2022-10-13T11:57:26.929Z,67.84
2022-10-13T11:58:31.021Z,67.92
2022-10-13T11:59:35.562Z,68.47
2022-10-13T12:00:38.182Z,68.77
2022-10-13T12:01:44.226Z,69.08
2022-10-13T12:02:49.629Z,69.31
2022-10-13T12:03:54.781Z,69.29
2022-10-13T12:05:02.752Z,69.23
2022-10-13T12:06:09.388Z,69.56
2022-10-13T12:07:15.226Z,69.73
2022-10-13T12:08:19.595Z,69.82
2022-10-13T12:09:22.441Z,69.92
2022-10-13T12:10:30.868Z,69.81
2022-10-13T12:11:38.126Z,69.29
2022-10-13T12:12:48.548Z,69.57
2022-10-13T12:13:53.082Z,69.75
2022-10-13T12:14:59.837Z,69.98
2022-10-13T12:16:04.518Z,69.84
2022-10-13T12:17:25.709Z,69.68
2022-10-13T12:18:31.995Z,69.41
2022-10-13T12:19:33.722Z,69.18
2022-10-13T12:20:35.791Z,68.73
2022-10-13T12:21:50.827Z,68.62
2022-10-13T12:22:54.615Z,68.41
2022-10-13T12:24:00.097Z,68.46
2022-10-13T12:25:05.261Z,68.50
2022-10-13T12:26:17.165Z,68.82
2022-10-13T12:27:22.961Z,68.74
2022-10-13T12:28:31.885Z,68.48
2022-10-13T12:29:37.296Z,68.29
2022-10-13T12:30:38.481Z,68.18
2022-10-13T12:31:45.972Z,68.17
2022-10-13T12:32:49.903Z,67.93
2022-10-13T12:33:54.876Z,67.84
2022-10-13T12:35:19.065Z,67.54
2022-10-13T12:36:24.385Z,68.14
2022-10-13T12:37:29.882Z,68.16
2022-10-13T12:38:32.914Z,68.13
2022-10-13T12:39:36.533Z,68.07
2022-10-13T12:40:39.419Z,67.85
2022-10-13T12:41:44.368Z,67.71
2022-10-13T12:42:47.645Z,67.44
2022-10-13T12:43:50.999Z,67.39
2022-10-13T12:44:53.780Z,67.33
2022-10-13T12:45:56.355Z,67.36
2022-10-13T12:47:00.943Z,67.35
2022-10-13T12:48:03.051Z,67.10
2022-10-13T12:49:14.364Z,66.87
2022-10-13T12:50:30.430Z,66.84
2022-10-13T12:51:33.500Z,66.56
2022-10-13T12:52:35.871Z,66.54
2022-10-13T12:53:39.284Z,66.27
2022-10-13T12:54:50.987Z,66.27
2022-10-13T12:56:00.183Z,66.11
2022-10-13T12:57:05.808Z,67.07
2022-10-13T12:58:11.395Z,66.28
2022-10-13T12:59:20.786Z,66.04
2022-10-13T13:00:26.005Z,65.67
2022-10-13T13:01:34.432Z,65.50
2022-10-13T13:02:36.667Z,65.48
2022-10-13T13:03:41.320Z,65.14
2022-10-13T13:04:44.372Z,65.02
2022-10-13T13:05:51.979Z,65.11
2022-10-13T13:07:00.848Z,65.23
2022-10-13T13:08:05.146Z,65.61
2022-10-13T13:10:23.699Z,65.56
2022-10-13T13:11:38.620Z,65.09
2022-10-13T13:12:41.543Z,64.77
2022-10-13T13:13:45.599Z,64.60
2022-10-13T13:16:16.076Z,64.14
2022-10-13T13:18:35.634Z,64.19
2022-10-13T13:19:38.915Z,64.12
2022-10-13T13:20:43.133Z,64.21
2022-10-13T13:21:45.427Z,63.84
2022-10-13T13:22:47.693Z,63.87
2022-10-13T13:23:53.783Z,64.11
2022-10-13T13:24:54.636Z,64.21
2022-10-13T13:26:02.298Z,64.29
2022-10-13T13:27:25.916Z,64.51
2022-10-13T13:28:30.645Z,64.58
2022-10-13T13:29:33.431Z,64.73
2022-10-13T13:30:36.412Z,64.70
2022-10-13T13:31:38.350Z,64.81
2022-10-13T13:32:40.420Z,64.60
2022-10-13T13:33:42.312Z,64.60
2022-10-13T13:34:44.811Z,64.61
2022-10-13T13:35:46.692Z,64.89
2022-10-13T13:36:48.887Z,64.63
2022-10-13T13:37:53.295Z,64.59
2022-10-13T13:38:55.342Z,64.82
2022-10-13T13:39:59.149Z,64.75
2022-10-13T13:41:03.868Z,65.41
2022-10-13T13:42:04.965Z,65.48
2022-10-13T13:43:08.847Z,65.09
2022-10-13T13:44:11.136Z,65.01
2022-10-13T13:45:16.181Z,64.77
2022-10-13T13:46:25.102Z,65.28
2022-10-13T13:47:28.680Z,65.53
2022-10-13T13:48:33.916Z,65.65
2022-10-13T13:49:36.920Z,64.86
2022-10-13T13:50:39.545Z,64.54
2022-10-13T13:51:41.836Z,63.31
2022-10-13T13:52:43.754Z,62.82
2022-10-13T13:53:45.806Z,63.13
2022-10-13T13:54:49.005Z,62.29
2022-10-13T13:55:50.877Z,62.33
2022-10-13T13:56:57.995Z,60.49
2022-10-13T13:58:00.512Z,60.60
2022-10-13T13:59:03.473Z,61.22
2022-10-13T14:00:07.391Z,60.66
2022-10-13T14:01:12.884Z,60.98
2022-10-13T14:02:18.963Z,62.09
2022-10-13T14:03:21.330Z,62.08
2022-10-13T14:04:30.115Z,61.50
2022-10-13T14:05:32.829Z,61.01
2022-10-13T14:06:34.653Z,60.98
2022-10-13T14:07:36.489Z,60.64
2022-10-13T14:08:47.133Z,60.95
2022-10-13T14:09:49.708Z,60.93
2022-10-13T14:10:51.925Z,60.52
2022-10-13T14:11:54.776Z,61.28
2022-10-13T14:12:57.222Z,61.55
2022-10-13T14:13:59.154Z,61.55
2022-10-13T14:15:06.300Z,61.52
2022-10-13T14:16:14.205Z,61.95
2022-10-13T14:17:19.170Z,62.18
2022-10-13T14:18:21.820Z,62.91
2022-10-13T14:19:23.616Z,63.09
2022-10-13T14:20:25.492Z,63.01
2022-10-13T14:21:27.255Z,63.83
2022-10-13T14:22:31.087Z,63.29
2022-10-13T14:23:33.080Z,63.65
2022-10-13T14:24:35.533Z,63.89
2022-10-13T14:25:39.472Z,64.33
2022-10-13T14:26:42.479Z,64.64
2022-10-13T14:27:45.030Z,64.83